createdAt,value
2023-05-03T00:01:29.545Z,26.44
2023-05-03T00:04:41.158Z,26.02
2023-05-03T00:12:15.896Z,25.61
2023-05-03T00:15:19.959Z,26.42
2023-05-03T00:18:24.876Z,27.05
2023-05-03T00:21:32.572Z,27.34
2023-05-03T00:24:37.562Z,27.04
2023-05-03T00:31:24.131Z,26.55
2023-05-03T00:34:31.708Z,26.85
2023-05-03T00:37:37.725Z,26.54
2023-05-03T00:40:44.292Z,26.73
2023-05-03T00:43:51.568Z,26.26
2023-05-03T00:46:57.562Z,25.76
2023-05-03T00:50:04.349Z,25.57
2023-05-03T00:53:12.067Z,26.65
2023-05-03T00:56:24.562Z,26.00
2023-05-03T00:59:30.274Z,25.23
2023-05-03T01:02:41.642Z,25.20
2023-05-03T01:06:24.785Z,26.04
2023-05-03T01:09:41.671Z,25.71
2023-05-03T01:12:57.960Z,25.73
2023-05-03T01:16:12.818Z,24.68
2023-05-03T01:19:48.951Z,24.75
2023-05-03T01:23:12.063Z,24.05
2023-05-03T01:26:22.100Z,23.39
2023-05-03T01:29:26.914Z,24.03
2023-05-03T01:32:52.094Z,23.35
2023-05-03T01:36:08.843Z,23.74
2023-05-03T01:39:23.937Z,24.10
2023-05-03T01:42:31.665Z,24.35
2023-05-03T01:45:36.553Z,23.66
2023-05-03T01:48:53.336Z,24.12
2023-05-03T01:52:07.331Z,24.07
2023-05-03T01:55:12.105Z,23.12
2023-05-03T01:58:16.978Z,24.49
2023-05-03T02:01:21.477Z,23.99
2023-05-03T02:04:28.925Z,23.63
2023-05-03T02:07:33.807Z,24.90
2023-05-03T02:10:37.928Z,23.73
2023-05-03T02:13:52.211Z,24.28
2023-05-03T02:17:00.007Z,24.00
2023-05-03T02:20:10.795Z,24.23
2023-05-03T02:23:15.585Z,24.76
2023-05-03T02:26:20.112Z,25.26
2023-05-03T02:29:43.774Z,25.61
2023-05-03T02:32:49.114Z,25.17
2023-05-03T02:39:43.206Z,25.53
2023-05-03T02:42:50.393Z,25.88
2023-05-03T02:46:09.059Z,26.72
2023-05-03T02:49:16.465Z,25.45
2023-05-03T02:52:21.358Z,25.66
2023-05-03T02:55:43.580Z,25.56
2023-05-03T02:59:08.223Z,25.49
2023-05-03T03:02:22.984Z,25.65
2023-05-03T03:05:36.652Z,26.02
2023-05-03T03:08:49.017Z,25.80
2023-05-03T03:12:26.349Z,26.32
2023-05-03T03:15:40.933Z,26.11
2023-05-03T03:18:57.082Z,26.00
2023-05-03T03:22:01.348Z,25.71
2023-05-03T03:25:08.480Z,25.89
2023-05-03T03:28:13.385Z,25.36
2023-05-03T03:31:23.756Z,25.97
2023-05-03T03:34:40.559Z,26.00
2023-05-03T03:38:22.517Z,25.75
2023-05-03T03:41:35.399Z,25.87
2023-05-03T03:44:40.415Z,26.36
2023-05-03T03:47:45.726Z,26.38
2023-05-03T03:50:52.285Z,26.64
2023-05-03T03:54:04.439Z,26.46
2023-05-03T03:57:15.500Z,26.70
2023-05-03T04:00:20.932Z,26.51
2023-05-03T04:36:36.230Z,26.81
2023-05-03T04:39:43.154Z,28.11
2023-05-03T04:46:41.456Z,27.95
2023-05-03T04:49:49.603Z,27.83
2023-05-03T04:52:54.606Z,27.91
2023-05-03T04:56:04.555Z,27.99
2023-05-03T04:59:12.638Z,28.21
2023-05-03T05:02:17.548Z,28.50
2023-05-03T05:05:22.267Z,27.90
2023-05-03T05:08:29.995Z,28.18
2023-05-03T05:11:35.388Z,28.45
2023-05-03T05:14:40.906Z,28.35
2023-05-03T05:17:47.486Z,27.81
2023-05-03T05:20:51.843Z,28.41
2023-05-03T05:23:56.786Z,28.12
2023-05-03T05:27:02.766Z,27.99
2023-05-03T05:30:08.087Z,28.13
2023-05-03T05:33:16.074Z,28.18
2023-05-03T05:36:22.040Z,27.88
2023-05-03T05:39:28.020Z,28.08
2023-05-03T05:42:33.083Z,28.67
2023-05-03T05:46:18.472Z,28.51
2023-05-03T05:49:25.538Z,28.01
2023-05-03T05:52:32.546Z,28.06
2023-05-03T05:55:36.544Z,28.42
2023-05-03T05:58:41.888Z,28.30
2023-05-03T06:01:48.873Z,27.98
2023-05-03T06:04:59.069Z,28.24
2023-05-03T06:08:04.965Z,28.22
2023-05-03T06:11:14.938Z,28.45
2023-05-03T06:14:26.494Z,28.09
2023-05-03T06:34:15.479Z,28.71
2023-05-03T06:37:23.684Z,28.06
2023-05-03T06:40:28.639Z,27.92
2023-05-03T06:43:33.379Z,27.88
2023-05-03T06:46:40.305Z,28.26
2023-05-03T06:49:45.050Z,28.14
2023-05-03T06:52:51.472Z,28.81
2023-05-03T06:55:56.786Z,28.91
2023-05-03T06:59:02.201Z,28.71
2023-05-03T07:02:08.265Z,28.71
2023-05-03T07:05:12.892Z,29.02
2023-05-03T07:08:17.574Z,28.78
2023-05-03T07:11:25.033Z,29.11
2023-05-03T07:14:29.680Z,29.05
2023-05-03T07:17:34.855Z,29.42
2023-05-03T07:20:42.373Z,29.38
2023-05-03T07:23:50.207Z,28.86
2023-05-03T07:26:57.413Z,29.44
2023-05-03T07:30:02.559Z,29.18
2023-05-03T07:33:09.315Z,29.50
2023-05-03T07:36:15.791Z,29.17
2023-05-03T07:39:23.566Z,29.46
2023-05-03T07:42:28.430Z,29.32
2023-05-03T07:45:34.387Z,29.96
2023-05-03T07:48:44.131Z,30.36
2023-05-03T07:51:48.698Z,30.07
2023-05-03T07:54:54.425Z,30.15
2023-05-03T07:58:02.031Z,29.71
2023-05-03T08:01:08.552Z,30.06
2023-05-03T08:04:16.315Z,29.92
2023-05-03T08:07:26.557Z,30.58
2023-05-03T08:10:31.252Z,30.79
2023-05-03T08:13:37.791Z,30.94
2023-05-03T08:16:42.155Z,31.22
2023-05-03T08:19:46.415Z,30.96
2023-05-03T08:22:51.573Z,31.10
2023-05-03T08:25:57.572Z,31.66
2023-05-03T08:29:05.326Z,31.87
2023-05-03T08:32:11.971Z,31.96
2023-05-03T08:35:19.948Z,32.10
2023-05-03T08:38:27.363Z,32.35
2023-05-03T08:41:32.979Z,32.79
2023-05-03T08:44:44.359Z,33.02
2023-05-03T08:47:57.425Z,33.13
2023-05-03T08:51:05.676Z,33.24
2023-05-03T08:54:12.724Z,33.65
2023-05-03T08:57:18.736Z,33.80
2023-05-03T09:00:30.490Z,33.71
2023-05-03T09:03:36.293Z,34.13
2023-05-03T09:06:41.658Z,34.31
2023-05-03T09:09:49.413Z,34.25
2023-05-03T09:13:11.042Z,34.73
2023-05-03T09:16:30.370Z,34.95
2023-05-03T09:19:54.470Z,35.41
2023-05-03T09:23:02.988Z,34.99
2023-05-03T09:26:08.297Z,35.38
2023-05-03T09:29:29.917Z,36.23
2023-05-03T09:32:53.011Z,36.27
2023-05-03T09:35:58.892Z,36.14
2023-05-03T09:39:18.251Z,36.81
2023-05-03T09:42:29.883Z,36.53
2023-05-03T09:45:39.094Z,37.24
2023-05-03T09:48:46.227Z,37.61
2023-05-03T09:51:51.261Z,37.48
2023-05-03T09:54:56.567Z,37.81
2023-05-03T09:58:12.620Z,38.12
2023-05-03T10:01:17.969Z,37.99
2023-05-03T10:04:26.347Z,38.37
2023-05-03T10:07:33.540Z,38.66
2023-05-03T10:10:40.123Z,38.77
2023-05-03T10:13:50.365Z,39.50
2023-05-03T10:17:07.365Z,39.33
2023-05-03T10:20:28.032Z,39.54
2023-05-03T10:23:32.289Z,39.53
2023-05-03T10:26:42.405Z,39.21
2023-05-03T10:29:55.358Z,39.94
2023-05-03T10:33:01.277Z,40.01
2023-05-03T10:36:11.350Z,40.28
2023-05-03T10:39:16.482Z,40.21
2023-05-03T10:42:32.822Z,41.63
2023-05-03T10:45:39.969Z,41.86
2023-05-03T10:48:47.067Z,42.17
2023-05-03T10:51:52.591Z,41.93
2023-05-03T10:54:59.796Z,42.29
2023-05-03T10:58:25.299Z,42.88
2023-05-03T11:01:33.549Z,43.58
2023-05-03T11:04:46.948Z,44.58
2023-05-03T11:08:15.967Z,45.53
2023-05-03T11:11:23.380Z,45.06
2023-05-03T11:14:30.153Z,45.51
2023-05-03T11:17:46.765Z,46.90
2023-05-03T11:20:54.658Z,46.84
2023-05-03T11:24:03.697Z,46.91
2023-05-03T11:27:12.757Z,47.06
2023-05-03T11:30:18.949Z,46.21
2023-05-03T11:33:25.780Z,46.56
2023-05-03T11:36:32.788Z,47.30
2023-05-03T11:39:41.508Z,47.52
2023-05-03T11:43:03.254Z,46.93
2023-05-03T11:46:08.345Z,46.93
2023-05-03T11:49:18.518Z,48.73
2023-05-03T11:52:28.369Z,48.11
2023-05-03T11:55:36.603Z,48.17
2023-05-03T11:59:01.601Z,49.37
2023-05-03T12:02:19.641Z,48.50
2023-05-03T12:06:02.474Z,48.98
2023-05-03T12:09:19.581Z,48.28
2023-05-03T12:12:31.060Z,47.82
2023-05-03T12:15:41.076Z,49.48
2023-05-03T12:18:55.907Z,50.87
2023-05-03T12:22:24.154Z,49.41
2023-05-03T12:25:33.444Z,49.16
2023-05-03T12:28:38.409Z,49.27
2023-05-03T12:31:44.316Z,49.30
2023-05-03T12:34:51.833Z,49.96
2023-05-03T12:38:04.990Z,49.69
2023-05-03T12:41:10.696Z,50.52
2023-05-03T12:44:17.255Z,51.89
2023-05-03T12:47:28.976Z,51.60
2023-05-03T12:50:38.000Z,52.04
2023-05-03T12:53:46.806Z,51.66
2023-05-03T12:56:54.801Z,52.42
2023-05-03T13:00:03.174Z,51.96
2023-05-03T13:06:26.079Z,51.39
2023-05-03T13:13:18.111Z,51.08
2023-05-03T13:16:22.280Z,51.62
2023-05-03T13:19:30.151Z,51.85
2023-05-03T13:22:35.147Z,51.34
2023-05-03T13:25:41.222Z,51.34
2023-05-03T13:28:45.695Z,50.00
2023-05-03T13:31:53.388Z,49.32
2023-05-03T13:34:58.004Z,49.07
2023-05-03T13:38:04.673Z,48.71
2023-05-03T13:41:12.666Z,48.71
2023-05-03T13:44:17.641Z,48.61
2023-05-03T13:47:22.717Z,48.01
2023-05-03T13:50:32.806Z,47.46
2023-05-03T13:53:36.817Z,47.03
2023-05-03T13:56:45.289Z,46.54
2023-05-03T13:59:52.730Z,46.38
2023-05-03T14:02:58.086Z,45.72
2023-05-03T14:06:04.688Z,45.40
2023-05-03T14:09:11.885Z,45.25
2023-05-03T14:12:18.365Z,45.21
2023-05-03T14:15:29.074Z,45.48
2023-05-03T14:18:33.671Z,45.60
2023-05-03T14:21:38.527Z,45.53
2023-05-03T14:24:43.568Z,45.91
2023-05-03T14:27:48.287Z,45.96
2023-05-03T14:30:55.837Z,45.75
2023-05-03T14:34:00.916Z,46.02
2023-05-03T14:37:05.559Z,45.95
2023-05-03T14:40:10.881Z,46.06
2023-05-03T14:43:16.348Z,45.78
2023-05-03T14:46:20.859Z,45.52
2023-05-03T14:49:27.695Z,45.59
2023-05-03T14:52:32.218Z,45.36
2023-05-03T14:55:37.411Z,45.16
2023-05-03T14:58:42.335Z,44.61
2023-05-03T15:01:49.552Z,44.62
2023-05-03T15:04:55.005Z,44.50
2023-05-03T15:08:00.956Z,44.02
2023-05-03T15:11:06.079Z,43.24
2023-05-03T15:14:11.061Z,42.60
2023-05-03T15:17:18.352Z,43.42
2023-05-03T15:20:23.477Z,42.83
2023-05-03T15:23:29.632Z,42.15
2023-05-03T15:26:33.961Z,41.76
2023-05-03T15:29:38.487Z,40.85
2023-05-03T15:32:46.180Z,39.72
2023-05-03T15:35:50.571Z,39.52
2023-05-03T15:38:55.530Z,39.80
2023-05-03T15:42:01.736Z,39.17
2023-05-03T15:45:12.189Z,38.42
2023-05-03T15:48:17.212Z,38.64
2023-05-03T15:51:22.255Z,38.19
2023-05-03T15:54:26.641Z,38.45
2023-05-03T15:57:32.679Z,38.41
2023-05-03T16:00:38.862Z,38.84
2023-05-03T16:03:43.680Z,38.62
2023-05-03T16:06:57.034Z,38.42
2023-05-03T16:10:01.751Z,37.58
2023-05-03T16:13:11.081Z,37.02
2023-05-03T16:16:34.841Z,37.89
2023-05-03T16:19:40.984Z,37.52
2023-05-03T16:22:46.201Z,37.84
2023-05-03T16:25:52.440Z,37.76
2023-05-03T16:28:57.426Z,37.31
2023-05-03T16:32:02.402Z,37.29
2023-05-03T16:35:07.584Z,37.34
2023-05-03T16:38:12.343Z,36.76
2023-05-03T16:41:17.410Z,35.88
2023-05-03T16:44:25.806Z,35.09
2023-05-03T16:47:30.303Z,33.69
2023-05-03T16:50:38.431Z,34.95
2023-05-03T16:53:44.891Z,35.46
2023-05-03T16:56:52.612Z,35.63
2023-05-03T17:00:09.615Z,35.67
2023-05-03T17:03:14.849Z,35.95
2023-05-03T17:06:21.770Z,36.03
2023-05-03T17:09:26.285Z,36.31
2023-05-03T17:12:30.875Z,36.62
2023-05-03T17:15:35.411Z,36.91
2023-05-03T17:18:41.276Z,37.12
2023-05-03T17:21:45.998Z,37.40
2023-05-03T17:24:55.980Z,37.72
2023-05-03T17:28:00.474Z,37.77
2023-05-03T17:31:10.151Z,37.99
2023-05-03T17:34:14.804Z,38.18
2023-05-03T17:37:21.254Z,38.36
2023-05-03T17:40:26.015Z,38.29
2023-05-03T17:50:03.895Z,38.48
2023-05-03T17:53:09.305Z,39.69
2023-05-03T17:56:17.763Z,40.15
2023-05-03T17:59:22.334Z,40.49
2023-05-03T18:02:27.191Z,40.77
2023-05-03T18:05:37.858Z,41.07
2023-05-03T18:08:42.503Z,40.85
2023-05-03T18:11:52.217Z,41.45
2023-05-03T18:15:02.995Z,41.90
2023-05-03T18:18:07.904Z,43.07
2023-05-03T18:21:15.169Z,42.67
2023-05-03T18:24:19.671Z,43.31
2023-05-03T18:27:24.322Z,44.15
2023-05-03T18:30:33.365Z,44.00
2023-05-03T18:33:40.837Z,42.99
2023-05-03T18:36:45.174Z,42.37
2023-05-03T18:39:51.701Z,41.94
2023-05-03T18:42:56.009Z,41.70
2023-05-03T18:46:03.707Z,41.62
2023-05-03T18:49:11.337Z,41.54
2023-05-03T18:52:16.882Z,41.85
2023-05-03T18:55:26.292Z,42.37
2023-05-03T18:58:31.170Z,42.47
2023-05-03T19:01:35.889Z,42.84
2023-05-03T19:04:42.874Z,42.97
2023-05-03T19:07:48.365Z,43.44
2023-05-03T19:10:52.675Z,44.30
2023-05-03T19:13:59.957Z,43.35
2023-05-03T19:17:06.253Z,42.99
2023-05-03T19:20:11.325Z,42.88
2023-05-03T19:23:16.173Z,43.38
2023-05-03T19:26:20.405Z,43.81
2023-05-03T19:29:24.931Z,44.27
2023-05-03T19:32:29.428Z,44.96
2023-05-03T19:35:40.619Z,45.55
2023-05-03T19:38:45.297Z,45.35
2023-05-03T19:41:51.199Z,45.34
2023-05-03T19:44:58.709Z,45.31
2023-05-03T19:48:08.465Z,45.87
2023-05-03T19:51:36.552Z,46.26
2023-05-03T19:55:26.440Z,46.82
2023-05-03T19:59:36.547Z,47.44
2023-05-03T20:03:58.582Z,47.16
2023-05-03T20:08:10.964Z,47.75
2023-05-03T20:11:30.472Z,48.93
2023-05-03T20:16:21.457Z,47.93
2023-05-03T21:50:16.679Z,50.94
2023-05-03T21:53:21.136Z,50.47
2023-05-03T21:56:25.629Z,51.69
2023-05-03T21:59:32.527Z,51.50
2023-05-03T22:02:37.138Z,51.62
2023-05-03T22:05:41.787Z,51.42
2023-05-03T22:08:45.608Z,51.86
2023-05-03T22:11:50.046Z,51.83
2023-05-03T22:14:55.051Z,52.44
2023-05-03T22:17:59.903Z,52.24
2023-05-03T22:21:07.285Z,51.82
2023-05-03T22:24:14.820Z,51.28
2023-05-03T22:27:19.580Z,51.14
2023-05-03T22:30:23.846Z,51.06
2023-05-03T22:33:31.661Z,50.60
2023-05-03T22:36:36.273Z,50.88
2023-05-03T22:39:40.426Z,49.99
2023-05-03T22:42:44.812Z,49.53
2023-05-03T22:45:51.931Z,49.07
2023-05-03T22:48:56.849Z,48.72
2023-05-03T22:52:01.461Z,48.87
2023-05-03T22:55:06.190Z,48.71
2023-05-03T22:58:10.315Z,48.42
2023-05-03T23:01:26.857Z,48.34
2023-05-03T23:04:33.717Z,47.71
2023-05-03T23:07:43.127Z,47.20
2023-05-03T23:10:47.310Z,46.60
2023-05-03T23:13:52.009Z,46.76
2023-05-03T23:16:57.339Z,46.18
2023-05-03T23:20:01.960Z,44.81
2023-05-03T23:23:06.194Z,45.22
2023-05-03T23:26:13.591Z,43.85
2023-05-03T23:29:20.081Z,43.45
2023-05-03T23:32:25.115Z,43.54
2023-05-03T23:35:29.950Z,42.94
2023-05-03T23:38:33.853Z,42.76
2023-05-03T23:41:37.836Z,42.46
2023-05-03T23:44:54.641Z,41.95
2023-05-03T23:48:00.084Z,42.22
2023-05-03T23:51:10.643Z,42.04
2023-05-03T23:54:24.363Z,41.89
2023-05-03T23:57:28.383Z,41.85
